sensor_id;sensor_type;location;lat;lon;timestamp;temperature;humidity
5775;DHT22;2913;51.120;6.772;2023-03-01T00:01:15;1.30;99.90
5775;DHT22;2913;51.120;6.772;2023-03-01T00:03:43;1.30;99.90
5775;DHT22;2913;51.120;6.772;2023-03-01T00:06:14;1.20;99.90
5775;DHT22;2913;51.120;6.772;2023-03-01T00:08:40;1.20;99.90
5775;DHT22;2913;51.120;6.772;2023-03-01T00:11:07;1.10;99.90
5775;DHT22;2913;51.120;6.772;2023-03-01T00:13:34;1.10;99.90
5775;DHT22;2913;51.120;6.772;2023-03-01T00:16:05;1.10;99.90
5775;DHT22;2913;51.120;6.772;2023-03-01T00:18:31;1.10;99.90
5775;DHT22;2913;51.120;6.772;2023-03-01T00:20:57;1.10;99.90
5775;DHT22;2913;51.120;6.772;2023-03-01T00:23:23;1.10;99.90
5775;DHT22;2913;51.120;6.772;2023-03-01T00:25:50;1.00;99.90
5775;DHT22;2913;51.120;6.772;2023-03-01T00:28:18;1.10;99.90
5775;DHT22;2913;51.120;6.772;2023-03-01T00:30:44;1.00;99.90
5775;DHT22;2913;51.120;6.772;2023-03-01T00:33:10;1.00;99.90
5775;DHT22;2913;51.120;6.772;2023-03-01T00:35:36;1.00;99.90
5775;DHT22;2913;51.120;6.772;2023-03-01T00:38:02;0.90;99.90
5775;DHT22;2913;51.120;6.772;2023-03-01T00:40:33;0.90;99.90
5775;DHT22;2913;51.120;6.772;2023-03-01T00:42:59;0.90;99.90
5775;DHT22;2913;51.120;6.772;2023-03-01T00:45:29;0.90;99.90
5775;DHT22;2913;51.120;6.772;2023-03-01T00:47:56;0.90;99.90
5775;DHT22;2913;51.120;6.772;2023-03-01T00:50:23;0.90;99.90
5775;DHT22;2913;51.120;6.772;2023-03-01T00:52:58;0.80;99.90
5775;DHT22;2913;51.120;6.772;2023-03-01T00:55:24;0.90;99.90
5775;DHT22;2913;51.120;6.772;2023-03-01T00:57:49;0.90;99.90
5775;DHT22;2913;51.120;6.772;2023-03-01T01:00:19;0.80;99.90
5775;DHT22;2913;51.120;6.772;2023-03-01T01:02:47;0.80;99.90
5775;DHT22;2913;51.120;6.772;2023-03-01T01:05:15;0.70;99.90
5775;DHT22;2913;51.120;6.772;2023-03-01T01:07:47;0.70;99.90
5775;DHT22;2913;51.120;6.772;2023-03-01T01:10:14;0.70;99.90
5775;DHT22;2913;51.120;6.772;2023-03-01T01:12:43;0.60;99.90
5775;DHT22;2913;51.120;6.772;2023-03-01T01:15:09;0.60;99.90
5775;DHT22;2913;51.120;6.772;2023-03-01T01:17:37;0.60;99.90
5775;DHT22;2913;51.120;6.772;2023-03-01T01:20:03;0.60;99.90
5775;DHT22;2913;51.120;6.772;2023-03-01T01:22:29;0.60;99.90
5775;DHT22;2913;51.120;6.772;2023-03-01T01:24:54;0.60;99.90
5775;DHT22;2913;51.120;6.772;2023-03-01T01:27:20;0.50;99.90
5775;DHT22;2913;51.120;6.772;2023-03-01T01:29:46;0.50;99.90
5775;DHT22;2913;51.120;6.772;2023-03-01T01:32:11;0.50;99.90
5775;DHT22;2913;51.120;6.772;2023-03-01T01:34:39;0.60;99.90
5775;DHT22;2913;51.120;6.772;2023-03-01T01:37:05;0.60;99.90
5775;DHT22;2913;51.120;6.772;2023-03-01T01:39:34;0.60;99.90
5775;DHT22;2913;51.120;6.772;2023-03-01T01:42:01;0.60;99.90
5775;DHT22;2913;51.120;6.772;2023-03-01T01:44:30;0.60;99.90
5775;DHT22;2913;51.120;6.772;2023-03-01T01:47:02;0.60;99.90
5775;DHT22;2913;51.120;6.772;2023-03-01T01:49:36;0.60;99.90
5775;DHT22;2913;51.120;6.772;2023-03-01T01:52:07;0.60;99.90
5775;DHT22;2913;51.120;6.772;2023-03-01T01:57:25;0.50;99.90
5775;DHT22;2913;51.120;6.772;2023-03-01T01:59:56;0.40;99.90
5775;DHT22;2913;51.120;6.772;2023-03-01T02:02:24;0.40;99.90
5775;DHT22;2913;51.120;6.772;2023-03-01T02:04:58;0.40;99.90
5775;DHT22;2913;51.120;6.772;2023-03-01T02:07:29;0.40;99.90
5775;DHT22;2913;51.120;6.772;2023-03-01T02:09:58;0.40;99.90
5775;DHT22;2913;51.120;6.772;2023-03-01T02:12:26;0.40;99.90
5775;DHT22;2913;51.120;6.772;2023-03-01T02:14:52;0.40;99.90
5775;DHT22;2913;51.120;6.772;2023-03-01T02:17:18;0.40;99.90
5775;DHT22;2913;51.120;6.772;2023-03-01T02:22:30;0.30;99.90
5775;DHT22;2913;51.120;6.772;2023-03-01T02:30:38;0.10;99.90
5775;DHT22;2913;51.120;6.772;2023-03-01T02:33:25;0.10;99.90
5775;DHT22;2913;51.120;6.772;2023-03-01T02:35:54;0.10;99.90
5775;DHT22;2913;51.120;6.772;2023-03-01T02:38:21;0.10;99.90
5775;DHT22;2913;51.120;6.772;2023-03-01T02:40:52;0.10;99.90
5775;DHT22;2913;51.120;6.772;2023-03-01T02:43:19;0.10;99.90
5775;DHT22;2913;51.120;6.772;2023-03-01T02:45:50;0.10;99.90
5775;DHT22;2913;51.120;6.772;2023-03-01T02:48:19;0.10;99.90
5775;DHT22;2913;51.120;6.772;2023-03-01T02:53:46;0.10;99.90
5775;DHT22;2913;51.120;6.772;2023-03-01T02:56:16;0.10;99.90
5775;DHT22;2913;51.120;6.772;2023-03-01T02:58:43;0.10;99.90
5775;DHT22;2913;51.120;6.772;2023-03-01T03:01:17;0.10;99.90
5775;DHT22;2913;51.120;6.772;2023-03-01T03:03:43;0.10;99.90
5775;DHT22;2913;51.120;6.772;2023-03-01T03:06:11;0.10;99.90
5775;DHT22;2913;51.120;6.772;2023-03-01T03:08:37;0.10;99.90
5775;DHT22;2913;51.120;6.772;2023-03-01T03:11:05;0.00;99.90
5775;DHT22;2913;51.120;6.772;2023-03-01T03:13:30;0.00;99.90
5775;DHT22;2913;51.120;6.772;2023-03-01T03:15:57;0.00;99.90
5775;DHT22;2913;51.120;6.772;2023-03-01T03:18:24;0.00;99.90
5775;DHT22;2913;51.120;6.772;2023-03-01T03:20:53;-0.10;99.90
5775;DHT22;2913;51.120;6.772;2023-03-01T03:23:21;-0.10;99.90
5775;DHT22;2913;51.120;6.772;2023-03-01T03:25:50;-0.10;99.90
5775;DHT22;2913;51.120;6.772;2023-03-01T03:28:18;-0.10;99.90
5775;DHT22;2913;51.120;6.772;2023-03-01T03:30:44;-0.10;99.90
5775;DHT22;2913;51.120;6.772;2023-03-01T03:33:11;-0.20;99.90
5775;DHT22;2913;51.120;6.772;2023-03-01T03:35:45;-0.20;99.90
5775;DHT22;2913;51.120;6.772;2023-03-01T03:38:12;-0.20;99.90
5775;DHT22;2913;51.120;6.772;2023-03-01T03:40:47;-0.20;99.90
5775;DHT22;2913;51.120;6.772;2023-03-01T03:43:22;-0.20;99.90
5775;DHT22;2913;51.120;6.772;2023-03-01T03:45:49;-0.20;99.90
5775;DHT22;2913;51.120;6.772;2023-03-01T03:48:18;-0.20;99.90
5775;DHT22;2913;51.120;6.772;2023-03-01T03:50:52;-0.30;99.90
5775;DHT22;2913;51.120;6.772;2023-03-01T03:53:19;-0.30;99.90
5775;DHT22;2913;51.120;6.772;2023-03-01T03:55:48;-0.30;99.90
5775;DHT22;2913;51.120;6.772;2023-03-01T03:58:17;-0.40;99.90
5775;DHT22;2913;51.120;6.772;2023-03-01T04:00:48;-0.40;99.90
5775;DHT22;2913;51.120;6.772;2023-03-01T04:03:18;-0.40;99.90
5775;DHT22;2913;51.120;6.772;2023-03-01T04:05:46;-0.50;99.90
5775;DHT22;2913;51.120;6.772;2023-03-01T04:08:12;-0.50;99.90
5775;DHT22;2913;51.120;6.772;2023-03-01T04:10:43;-0.50;99.90
5775;DHT22;2913;51.120;6.772;2023-03-01T04:13:12;-0.50;99.90
5775;DHT22;2913;51.120;6.772;2023-03-01T04:15:40;-0.50;99.90
5775;DHT22;2913;51.120;6.772;2023-03-01T04:18:06;-0.60;99.90
5775;DHT22;2913;51.120;6.772;2023-03-01T04:20:34;-0.60;99.90
5775;DHT22;2913;51.120;6.772;2023-03-01T04:23:08;-0.60;99.90
5775;DHT22;2913;51.120;6.772;2023-03-01T04:25:50;-0.70;99.90
5775;DHT22;2913;51.120;6.772;2023-03-01T04:28:34;-0.70;99.90
5775;DHT22;2913;51.120;6.772;2023-03-01T04:31:03;-0.80;99.90
5775;DHT22;2913;51.120;6.772;2023-03-01T04:33:42;-0.80;99.90
5775;DHT22;2913;51.120;6.772;2023-03-01T04:36:10;-0.80;99.90
5775;DHT22;2913;51.120;6.772;2023-03-01T04:38:39;-0.80;99.90
5775;DHT22;2913;51.120;6.772;2023-03-01T04:41:09;-0.80;99.90
5775;DHT22;2913;51.120;6.772;2023-03-01T04:43:38;-0.80;99.90
5775;DHT22;2913;51.120;6.772;2023-03-01T04:46:13;-0.90;99.90
5775;DHT22;2913;51.120;6.772;2023-03-01T04:48:40;-0.90;99.90
5775;DHT22;2913;51.120;6.772;2023-03-01T04:51:07;-0.80;99.90
5775;DHT22;2913;51.120;6.772;2023-03-01T04:53:34;-0.80;99.90
5775;DHT22;2913;51.120;6.772;2023-03-01T04:56:03;-0.90;99.90
5775;DHT22;2913;51.120;6.772;2023-03-01T04:58:29;-0.90;99.90
5775;DHT22;2913;51.120;6.772;2023-03-01T05:00:55;-1.00;99.90
5775;DHT22;2913;51.120;6.772;2023-03-01T05:03:28;-1.00;99.90
5775;DHT22;2913;51.120;6.772;2023-03-01T05:05:54;-1.00;99.90
5775;DHT22;2913;51.120;6.772;2023-03-01T05:08:26;-1.00;99.90
5775;DHT22;2913;51.120;6.772;2023-03-01T05:10:52;-0.90;99.90
5775;DHT22;2913;51.120;6.772;2023-03-01T05:13:22;-0.90;99.90
5775;DHT22;2913;51.120;6.772;2023-03-01T05:16:01;-0.90;99.90
5775;DHT22;2913;51.120;6.772;2023-03-01T05:18:31;-0.90;99.90
5775;DHT22;2913;51.120;6.772;2023-03-01T05:21:06;-0.90;99.90
5775;DHT22;2913;51.120;6.772;2023-03-01T05:23:33;-1.00;99.90
5775;DHT22;2913;51.120;6.772;2023-03-01T05:25:59;-1.00;99.90
5775;DHT22;2913;51.120;6.772;2023-03-01T05:28:28;-1.00;99.90
5775;DHT22;2913;51.120;6.772;2023-03-01T05:30:54;-1.00;99.90
5775;DHT22;2913;51.120;6.772;2023-03-01T05:33:23;-1.00;99.90
5775;DHT22;2913;51.120;6.772;2023-03-01T05:35:50;-0.90;99.90
5775;DHT22;2913;51.120;6.772;2023-03-01T05:38:17;-0.90;99.90
5775;DHT22;2913;51.120;6.772;2023-03-01T05:40:47;-1.00;99.90
5775;DHT22;2913;51.120;6.772;2023-03-01T05:43:15;-1.00;99.90
5775;DHT22;2913;51.120;6.772;2023-03-01T05:45:41;-1.00;99.90
5775;DHT22;2913;51.120;6.772;2023-03-01T05:48:10;-1.00;99.90
5775;DHT22;2913;51.120;6.772;2023-03-01T05:50:42;-1.00;99.90
5775;DHT22;2913;51.120;6.772;2023-03-01T05:53:19;-1.00;99.90
5775;DHT22;2913;51.120;6.772;2023-03-01T05:55:48;-1.00;99.90
5775;DHT22;2913;51.120;6.772;2023-03-01T05:58:18;-1.00;99.90
5775;DHT22;2913;51.120;6.772;2023-03-01T06:00:48;-1.00;99.90
5775;DHT22;2913;51.120;6.772;2023-03-01T06:03:16;-1.00;99.90
5775;DHT22;2913;51.120;6.772;2023-03-01T06:05:43;-1.00;99.90
5775;DHT22;2913;51.120;6.772;2023-03-01T06:08:10;-1.00;99.90
5775;DHT22;2913;51.120;6.772;2023-03-01T06:10:36;-1.00;99.90
5775;DHT22;2913;51.120;6.772;2023-03-01T06:13:04;-1.00;99.90
5775;DHT22;2913;51.120;6.772;2023-03-01T06:15:30;-1.00;99.90
5775;DHT22;2913;51.120;6.772;2023-03-01T06:17:58;-1.00;99.90
5775;DHT22;2913;51.120;6.772;2023-03-01T06:20:28;-1.00;99.90
5775;DHT22;2913;51.120;6.772;2023-03-01T06:22:53;-1.10;99.90
5775;DHT22;2913;51.120;6.772;2023-03-01T06:25:24;-1.10;99.90
5775;DHT22;2913;51.120;6.772;2023-03-01T06:27:50;-1.00;99.90
5775;DHT22;2913;51.120;6.772;2023-03-01T06:30:19;-1.00;99.90
5775;DHT22;2913;51.120;6.772;2023-03-01T06:32:45;-1.00;99.90
5775;DHT22;2913;51.120;6.772;2023-03-01T06:35:13;-1.10;99.90
5775;DHT22;2913;51.120;6.772;2023-03-01T06:37:40;-1.00;99.90
5775;DHT22;2913;51.120;6.772;2023-03-01T06:40:08;-1.00;99.90
5775;DHT22;2913;51.120;6.772;2023-03-01T06:42:40;-1.00;99.90
5775;DHT22;2913;51.120;6.772;2023-03-01T06:45:07;-1.00;99.90
5775;DHT22;2913;51.120;6.772;2023-03-01T06:47:33;-0.90;99.90
5775;DHT22;2913;51.120;6.772;2023-03-01T06:50:00;-0.90;99.90
5775;DHT22;2913;51.120;6.772;2023-03-01T06:52:28;-0.80;99.90
5775;DHT22;2913;51.120;6.772;2023-03-01T06:54:53;-0.70;99.90
5775;DHT22;2913;51.120;6.772;2023-03-01T06:57:19;-0.70;99.90
5775;DHT22;2913;51.120;6.772;2023-03-01T06:59:47;-0.60;99.90
5775;DHT22;2913;51.120;6.772;2023-03-01T07:02:15;-0.40;99.90
5775;DHT22;2913;51.120;6.772;2023-03-01T07:04:43;-0.20;99.90
5775;DHT22;2913;51.120;6.772;2023-03-01T07:07:14;0.00;99.90
5775;DHT22;2913;51.120;6.772;2023-03-01T07:09:39;0.10;99.90
5775;DHT22;2913;51.120;6.772;2023-03-01T07:12:05;0.20;99.90
5775;DHT22;2913;51.120;6.772;2023-03-01T07:14:33;0.40;99.90
5775;DHT22;2913;51.120;6.772;2023-03-01T07:16:59;0.40;99.90
5775;DHT22;2913;51.120;6.772;2023-03-01T07:19:25;0.50;99.90
5775;DHT22;2913;51.120;6.772;2023-03-01T07:21:55;0.70;99.90
5775;DHT22;2913;51.120;6.772;2023-03-01T07:24:21;0.80;99.90
5775;DHT22;2913;51.120;6.772;2023-03-01T07:26:51;0.90;99.90
5775;DHT22;2913;51.120;6.772;2023-03-01T07:29:17;1.10;99.90
5775;DHT22;2913;51.120;6.772;2023-03-01T07:31:43;1.20;99.90
5775;DHT22;2913;51.120;6.772;2023-03-01T07:34:09;1.20;99.90
5775;DHT22;2913;51.120;6.772;2023-03-01T07:36:38;1.30;99.90
5775;DHT22;2913;51.120;6.772;2023-03-01T07:39:04;1.50;99.90
5775;DHT22;2913;51.120;6.772;2023-03-01T07:41:30;1.70;99.90
5775;DHT22;2913;51.120;6.772;2023-03-01T07:43:56;2.00;99.90
5775;DHT22;2913;51.120;6.772;2023-03-01T07:46:21;2.10;99.90
5775;DHT22;2913;51.120;6.772;2023-03-01T07:48:47;2.20;99.90
5775;DHT22;2913;51.120;6.772;2023-03-01T07:51:13;2.40;99.90
5775;DHT22;2913;51.120;6.772;2023-03-01T07:53:39;2.20;99.90
5775;DHT22;2913;51.120;6.772;2023-03-01T07:56:08;2.50;99.90
5775;DHT22;2913;51.120;6.772;2023-03-01T07:58:41;2.60;99.90
5775;DHT22;2913;51.120;6.772;2023-03-01T08:01:11;2.80;99.90
5775;DHT22;2913;51.120;6.772;2023-03-01T08:03:37;3.00;99.90
5775;DHT22;2913;51.120;6.772;2023-03-01T08:06:04;3.20;99.90
5775;DHT22;2913;51.120;6.772;2023-03-01T08:08:31;3.20;99.90
5775;DHT22;2913;51.120;6.772;2023-03-01T08:10:58;3.40;99.90
5775;DHT22;2913;51.120;6.772;2023-03-01T08:13:24;3.50;99.90
5775;DHT22;2913;51.120;6.772;2023-03-01T08:15:49;3.60;99.90
5775;DHT22;2913;51.120;6.772;2023-03-01T08:18:16;3.30;99.90
5775;DHT22;2913;51.120;6.772;2023-03-01T08:20:42;3.50;99.90
5775;DHT22;2913;51.120;6.772;2023-03-01T08:23:10;3.70;99.90
5775;DHT22;2913;51.120;6.772;2023-03-01T08:25:36;3.80;99.90
5775;DHT22;2913;51.120;6.772;2023-03-01T08:28:02;3.30;99.10
5775;DHT22;2913;51.120;6.772;2023-03-01T08:30:28;3.40;99.90
5775;DHT22;2913;51.120;6.772;2023-03-01T08:32:54;3.40;99.90
5775;DHT22;2913;51.120;6.772;2023-03-01T08:35:20;3.30;99.90
5775;DHT22;2913;51.120;6.772;2023-03-01T08:37:48;3.30;99.90
5775;DHT22;2913;51.120;6.772;2023-03-01T08:40:14;3.40;99.90
5775;DHT22;2913;51.120;6.772;2023-03-01T08:42:41;3.40;99.10
5775;DHT22;2913;51.120;6.772;2023-03-01T08:45:09;3.50;99.80
5775;DHT22;2913;51.120;6.772;2023-03-01T08:47:35;3.50;98.40
5775;DHT22;2913;51.120;6.772;2023-03-01T08:50:05;3.60;97.60
5775;DHT22;2913;51.120;6.772;2023-03-01T08:52:34;3.50;97.80
5775;DHT22;2913;51.120;6.772;2023-03-01T08:55:00;3.60;98.50
5775;DHT22;2913;51.120;6.772;2023-03-01T08:57:28;3.70;97.30
5775;DHT22;2913;51.120;6.772;2023-03-01T08:59:56;3.60;97.30
5775;DHT22;2913;51.120;6.772;2023-03-01T09:02:21;3.80;97.50
5775;DHT22;2913;51.120;6.772;2023-03-01T09:04:47;3.70;96.90
5775;DHT22;2913;51.120;6.772;2023-03-01T09:07:12;3.70;96.60
5775;DHT22;2913;51.120;6.772;2023-03-01T09:09:38;3.70;96.30
5775;DHT22;2913;51.120;6.772;2023-03-01T09:12:04;3.80;95.80
5775;DHT22;2913;51.120;6.772;2023-03-01T09:14:32;3.70;94.70
5775;DHT22;2913;51.120;6.772;2023-03-01T09:16:58;3.80;94.30
5775;DHT22;2913;51.120;6.772;2023-03-01T09:19:28;3.90;93.80
5775;DHT22;2913;51.120;6.772;2023-03-01T09:21:54;4.00;93.80
5775;DHT22;2913;51.120;6.772;2023-03-01T09:24:23;4.10;93.80
5775;DHT22;2913;51.120;6.772;2023-03-01T09:26:55;4.10;93.10
5775;DHT22;2913;51.120;6.772;2023-03-01T09:29:21;4.20;93.10
5775;DHT22;2913;51.120;6.772;2023-03-01T09:31:47;4.30;92.70
5775;DHT22;2913;51.120;6.772;2023-03-01T09:34:13;4.30;92.20
5775;DHT22;2913;51.120;6.772;2023-03-01T09:36:41;4.20;92.00
5775;DHT22;2913;51.120;6.772;2023-03-01T09:39:09;4.30;91.80
5775;DHT22;2913;51.120;6.772;2023-03-01T09:41:59;4.20;91.00
5775;DHT22;2913;51.120;6.772;2023-03-01T09:47:22;4.40;90.40
5775;DHT22;2913;51.120;6.772;2023-03-01T09:50:20;4.50;90.70
5775;DHT22;2913;51.120;6.772;2023-03-01T09:53:01;4.40;90.20
5775;DHT22;2913;51.120;6.772;2023-03-01T09:55:42;4.40;89.80
5775;DHT22;2913;51.120;6.772;2023-03-01T10:01:41;4.60;90.00
5775;DHT22;2913;51.120;6.772;2023-03-01T10:10:22;4.80;87.10
5775;DHT22;2913;51.120;6.772;2023-03-01T10:12:49;5.00;86.80
5775;DHT22;2913;51.120;6.772;2023-03-01T10:15:22;5.10;85.50
5775;DHT22;2913;51.120;6.772;2023-03-01T10:20:26;5.20;84.40
5775;DHT22;2913;51.120;6.772;2023-03-01T10:22:52;5.40;84.00
5775;DHT22;2913;51.120;6.772;2023-03-01T10:27:53;5.00;80.60
5775;DHT22;2913;51.120;6.772;2023-03-01T10:32:57;5.40;80.20
5775;DHT22;2913;51.120;6.772;2023-03-01T10:35:29;5.50;80.00
5775;DHT22;2913;51.120;6.772;2023-03-01T10:38:08;5.50;78.90
5775;DHT22;2913;51.120;6.772;2023-03-01T10:40:35;5.60;79.20
5775;DHT22;2913;51.120;6.772;2023-03-01T10:43:04;5.60;78.60
5775;DHT22;2913;51.120;6.772;2023-03-01T10:45:36;5.70;79.80
5775;DHT22;2913;51.120;6.772;2023-03-01T10:50:34;5.60;79.50
5775;DHT22;2913;51.120;6.772;2023-03-01T10:53:03;5.30;79.20
5775;DHT22;2913;51.120;6.772;2023-03-01T10:55:38;5.50;79.60
5775;DHT22;2913;51.120;6.772;2023-03-01T11:01:23;6.00;78.40
5775;DHT22;2913;51.120;6.772;2023-03-01T11:04:10;6.10;77.50
5775;DHT22;2913;51.120;6.772;2023-03-01T11:06:38;5.80;74.90
5775;DHT22;2913;51.120;6.772;2023-03-01T11:11:41;6.10;75.70
5775;DHT22;2913;51.120;6.772;2023-03-01T11:14:20;6.30;75.80
5775;DHT22;2913;51.120;6.772;2023-03-01T11:16:49;6.30;75.10
5775;DHT22;2913;51.120;6.772;2023-03-01T11:19:23;6.40;74.70
5775;DHT22;2913;51.120;6.772;2023-03-01T11:24:32;6.40;73.70
5775;DHT22;2913;51.120;6.772;2023-03-01T11:27:03;6.40;73.10
5775;DHT22;2913;51.120;6.772;2023-03-01T11:29:37;6.70;73.60
5775;DHT22;2913;51.120;6.772;2023-03-01T11:32:07;6.50;73.40
5775;DHT22;2913;51.120;6.772;2023-03-01T11:37:44;6.80;74.00
5775;DHT22;2913;51.120;6.772;2023-03-01T11:40:17;6.90;73.10
5775;DHT22;2913;51.120;6.772;2023-03-01T11:43:22;6.80;72.80
5775;DHT22;2913;51.120;6.772;2023-03-01T11:56:55;7.30;71.10
5775;DHT22;2913;51.120;6.772;2023-03-01T12:02:25;7.40;70.60
5775;DHT22;2913;51.120;6.772;2023-03-01T12:10:28;7.40;71.50
5775;DHT22;2913;51.120;6.772;2023-03-01T12:13:25;7.40;72.30
5775;DHT22;2913;51.120;6.772;2023-03-01T12:24:47;7.30;74.10
5775;DHT22;2913;51.120;6.772;2023-03-01T12:27:37;7.20;73.50
5775;DHT22;2913;51.120;6.772;2023-03-01T12:30:42;7.40;73.00
5775;DHT22;2913;51.120;6.772;2023-03-01T12:33:38;7.30;71.80
5775;DHT22;2913;51.120;6.772;2023-03-01T12:38:50;7.40;73.20
5775;DHT22;2913;51.120;6.772;2023-03-01T12:41:27;7.20;72.10
5775;DHT22;2913;51.120;6.772;2023-03-01T12:44:01;7.20;72.60
5775;DHT22;2913;51.120;6.772;2023-03-01T12:49:23;7.50;74.00
5775;DHT22;2913;51.120;6.772;2023-03-01T12:52:16;7.30;74.70
5775;DHT22;2913;51.120;6.772;2023-03-01T12:54:45;7.10;74.50
5775;DHT22;2913;51.120;6.772;2023-03-01T13:08:33;7.10;74.00
5775;DHT22;2913;51.120;6.772;2023-03-01T13:11:04;7.50;74.90
5775;DHT22;2913;51.120;6.772;2023-03-01T13:13:31;7.30;73.70
5775;DHT22;2913;51.120;6.772;2023-03-01T13:15:57;7.40;73.50
5775;DHT22;2913;51.120;6.772;2023-03-01T13:18:42;7.70;74.60
5775;DHT22;2913;51.120;6.772;2023-03-01T13:21:10;7.50;73.00
5775;DHT22;2913;51.120;6.772;2023-03-01T13:23:40;7.60;72.10
5775;DHT22;2913;51.120;6.772;2023-03-01T13:34:03;7.60;72.90
5775;DHT22;2913;51.120;6.772;2023-03-01T13:46:55;7.40;74.10
5775;DHT22;2913;51.120;6.772;2023-03-01T13:49:26;7.50;74.80
5775;DHT22;2913;51.120;6.772;2023-03-01T13:51:53;7.60;74.90
5775;DHT22;2913;51.120;6.772;2023-03-01T13:54:39;7.50;74.90
5775;DHT22;2913;51.120;6.772;2023-03-01T13:57:04;7.50;74.00
5775;DHT22;2913;51.120;6.772;2023-03-01T13:59:30;7.50;74.80
5775;DHT22;2913;51.120;6.772;2023-03-01T14:01:58;7.50;75.20
5775;DHT22;2913;51.120;6.772;2023-03-01T14:04:31;7.40;74.40
5775;DHT22;2913;51.120;6.772;2023-03-01T14:07:20;7.50;74.30
5775;DHT22;2913;51.120;6.772;2023-03-01T14:09:48;7.60;74.10
5775;DHT22;2913;51.120;6.772;2023-03-01T14:18:04;7.60;73.90
5775;DHT22;2913;51.120;6.772;2023-03-01T14:20:39;7.50;73.30
5775;DHT22;2913;51.120;6.772;2023-03-01T14:23:15;7.60;73.70
5775;DHT22;2913;51.120;6.772;2023-03-01T14:25:51;7.70;73.40
5775;DHT22;2913;51.120;6.772;2023-03-01T14:28:20;7.60;72.90
5775;DHT22;2913;51.120;6.772;2023-03-01T14:30:51;7.70;73.30
5775;DHT22;2913;51.120;6.772;2023-03-01T14:33:41;7.80;73.10
5775;DHT22;2913;51.120;6.772;2023-03-01T14:36:10;7.80;73.70
5775;DHT22;2913;51.120;6.772;2023-03-01T14:38:38;7.80;73.70
5775;DHT22;2913;51.120;6.772;2023-03-01T14:41:20;8.00;74.50
5775;DHT22;2913;51.120;6.772;2023-03-01T14:43:55;7.70;73.30
5775;DHT22;2913;51.120;6.772;2023-03-01T14:46:24;7.70;72.90
5775;DHT22;2913;51.120;6.772;2023-03-01T14:48:54;7.70;73.00
5775;DHT22;2913;51.120;6.772;2023-03-01T14:51:24;7.70;72.50
5775;DHT22;2913;51.120;6.772;2023-03-01T14:53:50;7.70;72.80
5775;DHT22;2913;51.120;6.772;2023-03-01T14:56:18;7.80;73.20
5775;DHT22;2913;51.120;6.772;2023-03-01T14:58:45;7.80;73.50
5775;DHT22;2913;51.120;6.772;2023-03-01T15:01:15;7.60;73.00
5775;DHT22;2913;51.120;6.772;2023-03-01T15:03:47;7.80;74.10
5775;DHT22;2913;51.120;6.772;2023-03-01T15:06:23;7.60;74.00
5775;DHT22;2913;51.120;6.772;2023-03-01T15:08:53;7.60;74.20
5775;DHT22;2913;51.120;6.772;2023-03-01T15:11:32;7.50;74.00
5775;DHT22;2913;51.120;6.772;2023-03-01T15:14:03;7.60;73.90
5775;DHT22;2913;51.120;6.772;2023-03-01T15:16:46;7.60;73.60
5775;DHT22;2913;51.120;6.772;2023-03-01T15:19:17;7.60;73.30
5775;DHT22;2913;51.120;6.772;2023-03-01T15:21:48;7.60;73.30
5775;DHT22;2913;51.120;6.772;2023-03-01T15:24:23;7.50;73.30
5775;DHT22;2913;51.120;6.772;2023-03-01T15:29:27;7.70;73.10
5775;DHT22;2913;51.120;6.772;2023-03-01T15:34:33;7.60;72.90
5775;DHT22;2913;51.120;6.772;2023-03-01T15:37:01;7.60;72.40
5775;DHT22;2913;51.120;6.772;2023-03-01T15:39:35;7.50;72.00
5775;DHT22;2913;51.120;6.772;2023-03-01T15:42:07;7.50;71.90
5775;DHT22;2913;51.120;6.772;2023-03-01T15:44:35;7.40;71.70
5775;DHT22;2913;51.120;6.772;2023-03-01T15:47:05;7.40;71.80
5775;DHT22;2913;51.120;6.772;2023-03-01T15:49:40;7.30;71.70
5775;DHT22;2913;51.120;6.772;2023-03-01T15:52:13;7.40;72.50
5775;DHT22;2913;51.120;6.772;2023-03-01T15:54:41;7.30;72.30
5775;DHT22;2913;51.120;6.772;2023-03-01T15:57:15;7.30;72.40
5775;DHT22;2913;51.120;6.772;2023-03-01T15:59:43;7.40;73.20
5775;DHT22;2913;51.120;6.772;2023-03-01T16:02:13;7.20;72.00
5775;DHT22;2913;51.120;6.772;2023-03-01T16:04:39;7.20;72.10
5775;DHT22;2913;51.120;6.772;2023-03-01T16:07:05;7.30;72.00
5775;DHT22;2913;51.120;6.772;2023-03-01T16:09:31;7.30;72.00
5775;DHT22;2913;51.120;6.772;2023-03-01T16:12:00;7.30;71.90
5775;DHT22;2913;51.120;6.772;2023-03-01T16:14:27;7.20;71.50
5775;DHT22;2913;51.120;6.772;2023-03-01T16:16:52;7.30;71.70
5775;DHT22;2913;51.120;6.772;2023-03-01T16:19:18;7.20;71.50
5775;DHT22;2913;51.120;6.772;2023-03-01T16:21:46;7.10;71.60
5775;DHT22;2913;51.120;6.772;2023-03-01T16:24:15;7.10;72.10
5775;DHT22;2913;51.120;6.772;2023-03-01T16:26:40;7.00;72.30
5775;DHT22;2913;51.120;6.772;2023-03-01T16:29:08;7.00;72.40
5775;DHT22;2913;51.120;6.772;2023-03-01T16:31:34;6.90;72.40
5775;DHT22;2913;51.120;6.772;2023-03-01T16:34:02;7.00;72.30
5775;DHT22;2913;51.120;6.772;2023-03-01T16:36:30;6.90;72.40
5775;DHT22;2913;51.120;6.772;2023-03-01T16:38:59;6.90;72.60
5775;DHT22;2913;51.120;6.772;2023-03-01T16:41:28;6.80;73.00
5775;DHT22;2913;51.120;6.772;2023-03-01T16:43:54;6.70;72.40
5775;DHT22;2913;51.120;6.772;2023-03-01T16:46:25;6.70;72.20
5775;DHT22;2913;51.120;6.772;2023-03-01T16:48:51;6.70;72.30
5775;DHT22;2913;51.120;6.772;2023-03-01T16:51:18;6.60;72.10
5775;DHT22;2913;51.120;6.772;2023-03-01T16:53:44;6.50;72.40
5775;DHT22;2913;51.120;6.772;2023-03-01T16:56:13;6.50;72.30
5775;DHT22;2913;51.120;6.772;2023-03-01T16:58:40;6.50;72.40
5775;DHT22;2913;51.120;6.772;2023-03-01T17:01:14;6.40;72.30
5775;DHT22;2913;51.120;6.772;2023-03-01T17:03:41;6.50;72.70
5775;DHT22;2913;51.120;6.772;2023-03-01T17:06:10;6.30;72.70
5775;DHT22;2913;51.120;6.772;2023-03-01T17:08:37;6.20;72.30
5775;DHT22;2913;51.120;6.772;2023-03-01T17:11:05;6.20;72.30
5775;DHT22;2913;51.120;6.772;2023-03-01T17:13:31;6.20;72.60
5775;DHT22;2913;51.120;6.772;2023-03-01T17:15:57;6.20;72.90
5775;DHT22;2913;51.120;6.772;2023-03-01T17:18:22;6.00;73.10
5775;DHT22;2913;51.120;6.772;2023-03-01T17:20:49;6.00;73.40
5775;DHT22;2913;51.120;6.772;2023-03-01T17:23:17;6.10;73.90
5775;DHT22;2913;51.120;6.772;2023-03-01T17:25:43;6.00;74.20
5775;DHT22;2913;51.120;6.772;2023-03-01T17:28:11;6.00;74.50
5775;DHT22;2913;51.120;6.772;2023-03-01T17:30:37;5.80;74.40
5775;DHT22;2913;51.120;6.772;2023-03-01T17:33:08;5.90;75.00
5775;DHT22;2913;51.120;6.772;2023-03-01T17:35:33;5.80;75.20
5775;DHT22;2913;51.120;6.772;2023-03-01T17:38:01;5.80;75.60
5775;DHT22;2913;51.120;6.772;2023-03-01T17:40:34;5.70;75.90
5775;DHT22;2913;51.120;6.772;2023-03-01T17:43:01;5.60;76.20
5775;DHT22;2913;51.120;6.772;2023-03-01T17:45:30;5.70;76.50
5775;DHT22;2913;51.120;6.772;2023-03-01T17:47:55;5.60;76.40
5775;DHT22;2913;51.120;6.772;2023-03-01T17:50:21;5.50;76.60
5775;DHT22;2913;51.120;6.772;2023-03-01T17:52:47;5.50;76.70
5775;DHT22;2913;51.120;6.772;2023-03-01T17:55:15;5.60;76.80
5775;DHT22;2913;51.120;6.772;2023-03-01T17:57:41;5.50;76.90
5775;DHT22;2913;51.120;6.772;2023-03-01T18:00:10;5.50;77.40
5775;DHT22;2913;51.120;6.772;2023-03-01T18:02:36;5.40;77.20
5775;DHT22;2913;51.120;6.772;2023-03-01T18:05:02;5.30;77.60
5775;DHT22;2913;51.120;6.772;2023-03-01T18:07:30;5.40;77.80
5775;DHT22;2913;51.120;6.772;2023-03-01T18:09:56;5.40;77.80
5775;DHT22;2913;51.120;6.772;2023-03-01T18:12:22;5.30;78.20
5775;DHT22;2913;51.120;6.772;2023-03-01T18:14:50;5.30;78.50
5775;DHT22;2913;51.120;6.772;2023-03-01T18:17:25;5.20;78.60
5775;DHT22;2913;51.120;6.772;2023-03-01T18:19:51;5.20;78.80
5775;DHT22;2913;51.120;6.772;2023-03-01T18:22:17;5.10;78.80
5775;DHT22;2913;51.120;6.772;2023-03-01T18:24:43;5.10;79.20
5775;DHT22;2913;51.120;6.772;2023-03-01T18:27:13;5.10;79.30
5775;DHT22;2913;51.120;6.772;2023-03-01T18:29:44;5.00;79.50
5775;DHT22;2913;51.120;6.772;2023-03-01T18:32:09;5.00;79.80